aviador You're here:

CYQA Decoded Metar

MUSKOKA in ON, CANADA
Report Time2018-07-22 02:00:00
UTC Time2018-07-22 02:52:42
Flight Rules vfr VFR
WindVRB at 02 kt
Visibility9999 m
Phenomena:N/A
Clouds:Overcast 140 Hf
Expected CloudBase > 2,800 ft AGL from Temp-Dew spread
Ceiling14,000 ft
Temp20°C (ISA +7)
Dew Point13°C (64% RH)
QNH1015 hPa
Density Alt1,860 ft
Elevation925 ft
Report Wrong Elevation
Raw Report
CYQA 220200Z AUTO VRB02KT 9SM OVC140 20/13 A2997 RMK SLP148
DENSITY ALT 1600FT=

Extra information for CYQA:More info

Metar Taf Metar & Taf Last 4 Metars F.Rules Stats Wind Profile Meteogram Temp Stats Airport Information Weather charts Add Link Nearby VenuesMetar ALERT Operation Metar Decoded Social comments